sensor_id;sensor_type;location;lat;lon;timestamp;P1;durP1;ratioP1;P2;durP2;ratioP2
30380;SDS011;17169;50.966;11.038;2023-04-30T00:00:34;16.38;;;10.75;;
30380;SDS011;17169;50.966;11.038;2023-04-30T00:03:36;19.55;;;11.68;;
30380;SDS011;17169;50.966;11.038;2023-04-30T00:06:40;17.85;;;11.90;;
30380;SDS011;17169;50.966;11.038;2023-04-30T00:09:42;20.08;;;11.85;;
30380;SDS011;17169;50.966;11.038;2023-04-30T00:12:45;21.50;;;11.65;;
30380;SDS011;17169;50.966;11.038;2023-04-30T00:15:47;20.83;;;11.98;;
30380;SDS011;17169;50.966;11.038;2023-04-30T00:18:50;19.23;;;11.63;;
30380;SDS011;17169;50.966;11.038;2023-04-30T00:21:54;17.30;;;11.57;;
30380;SDS011;17169;50.966;11.038;2023-04-30T00:24:56;20.88;;;11.45;;
30380;SDS011;17169;50.966;11.038;2023-04-30T00:27:59;16.25;;;11.75;;
30380;SDS011;17169;50.966;11.038;2023-04-30T00:31:01;14.35;;;10.52;;
30380;SDS011;17169;50.966;11.038;2023-04-30T00:34:06;15.90;;;11.50;;
30380;SDS011;17169;50.966;11.038;2023-04-30T00:37:10;15.52;;;11.15;;
30380;SDS011;17169;50.966;11.038;2023-04-30T00:40:12;16.80;;;10.85;;
30380;SDS011;17169;50.966;11.038;2023-04-30T00:43:14;16.55;;;12.18;;
30380;SDS011;17169;50.966;11.038;2023-04-30T00:46:20;17.35;;;11.73;;
30380;SDS011;17169;50.966;11.038;2023-04-30T00:49:22;18.60;;;11.68;;
30380;SDS011;17169;50.966;11.038;2023-04-30T00:52:26;15.68;;;11.25;;
30380;SDS011;17169;50.966;11.038;2023-04-30T00:55:29;19.00;;;12.73;;
30380;SDS011;17169;50.966;11.038;2023-04-30T00:58:31;17.88;;;12.57;;
30380;SDS011;17169;50.966;11.038;2023-04-30T01:01:34;22.60;;;13.63;;
30380;SDS011;17169;50.966;11.038;2023-04-30T01:04:37;17.42;;;11.95;;
30380;SDS011;17169;50.966;11.038;2023-04-30T01:07:41;17.90;;;12.75;;
30380;SDS011;17169;50.966;11.038;2023-04-30T01:10:47;19.83;;;12.85;;
30380;SDS011;17169;50.966;11.038;2023-04-30T01:13:58;22.27;;;14.75;;
30380;SDS011;17169;50.966;11.038;2023-04-30T01:17:10;19.08;;;12.10;;
30380;SDS011;17169;50.966;11.038;2023-04-30T01:20:17;17.92;;;12.57;;
30380;SDS011;17169;50.966;11.038;2023-04-30T01:23:24;21.15;;;12.90;;
30380;SDS011;17169;50.966;11.038;2023-04-30T01:26:39;17.92;;;13.00;;
30380;SDS011;17169;50.966;11.038;2023-04-30T01:29:54;21.50;;;13.05;;
30380;SDS011;17169;50.966;11.038;2023-04-30T01:32:58;22.20;;;13.98;;
30380;SDS011;17169;50.966;11.038;2023-04-30T01:39:32;17.15;;;12.35;;
30380;SDS011;17169;50.966;11.038;2023-04-30T01:42:48;19.95;;;12.35;;
30380;SDS011;17169;50.966;11.038;2023-04-30T01:45:59;18.42;;;13.15;;
30380;SDS011;17169;50.966;11.038;2023-04-30T01:49:11;17.20;;;12.30;;
30380;SDS011;17169;50.966;11.038;2023-04-30T01:52:22;19.65;;;12.18;;
30380;SDS011;17169;50.966;11.038;2023-04-30T01:55:33;18.77;;;13.23;;
30380;SDS011;17169;50.966;11.038;2023-04-30T01:58:38;19.42;;;12.68;;
30380;SDS011;17169;50.966;11.038;2023-04-30T02:01:43;18.73;;;12.77;;
30380;SDS011;17169;50.966;11.038;2023-04-30T02:04:45;22.77;;;13.18;;
30380;SDS011;17169;50.966;11.038;2023-04-30T02:07:48;17.27;;;12.55;;
30380;SDS011;17169;50.966;11.038;2023-04-30T02:10:52;17.77;;;12.70;;
30380;SDS011;17169;50.966;11.038;2023-04-30T02:13:54;16.50;;;12.05;;
30380;SDS011;17169;50.966;11.038;2023-04-30T02:16:58;18.75;;;12.10;;
30380;SDS011;17169;50.966;11.038;2023-04-30T02:20:00;17.15;;;12.35;;
30380;SDS011;17169;50.966;11.038;2023-04-30T02:23:03;18.92;;;11.80;;
30380;SDS011;17169;50.966;11.038;2023-04-30T02:26:05;19.23;;;13.13;;
30380;SDS011;17169;50.966;11.038;2023-04-30T02:29:08;19.80;;;12.77;;
30380;SDS011;17169;50.966;11.038;2023-04-30T02:32:12;18.52;;;13.00;;
30380;SDS011;17169;50.966;11.038;2023-04-30T02:35:15;19.88;;;12.88;;
30380;SDS011;17169;50.966;11.038;2023-04-30T02:38:17;21.25;;;12.63;;
30380;SDS011;17169;50.966;11.038;2023-04-30T02:41:20;19.08;;;12.90;;
30380;SDS011;17169;50.966;11.038;2023-04-30T02:44:22;19.67;;;12.45;;
30380;SDS011;17169;50.966;11.038;2023-04-30T02:47:26;17.02;;;12.48;;
30380;SDS011;17169;50.966;11.038;2023-04-30T02:50:28;23.85;;;14.52;;
30380;SDS011;17169;50.966;11.038;2023-04-30T02:53:31;19.92;;;13.55;;
30380;SDS011;17169;50.966;11.038;2023-04-30T02:56:33;20.33;;;14.32;;
30380;SDS011;17169;50.966;11.038;2023-04-30T02:59:35;23.77;;;14.60;;
30380;SDS011;17169;50.966;11.038;2023-04-30T03:02:39;25.42;;;14.70;;
30380;SDS011;17169;50.966;11.038;2023-04-30T03:05:42;20.98;;;14.32;;
30380;SDS011;17169;50.966;11.038;2023-04-30T03:08:44;21.75;;;14.93;;
30380;SDS011;17169;50.966;11.038;2023-04-30T03:11:46;22.35;;;15.63;;
30380;SDS011;17169;50.966;11.038;2023-04-30T03:14:49;20.27;;;13.57;;
30380;SDS011;17169;50.966;11.038;2023-04-30T03:17:53;19.63;;;14.70;;
30380;SDS011;17169;50.966;11.038;2023-04-30T03:20:55;22.55;;;14.90;;
30380;SDS011;17169;50.966;11.038;2023-04-30T03:23:57;23.42;;;15.60;;
30380;SDS011;17169;50.966;11.038;2023-04-30T03:27:00;22.70;;;14.32;;
30380;SDS011;17169;50.966;11.038;2023-04-30T03:30:03;23.55;;;15.15;;
30380;SDS011;17169;50.966;11.038;2023-04-30T03:33:08;23.17;;;14.32;;
30380;SDS011;17169;50.966;11.038;2023-04-30T03:36:10;23.25;;;16.30;;
30380;SDS011;17169;50.966;11.038;2023-04-30T03:39:13;20.70;;;13.93;;
30380;SDS011;17169;50.966;11.038;2023-04-30T03:42:16;19.70;;;14.65;;
30380;SDS011;17169;50.966;11.038;2023-04-30T03:45:18;21.52;;;14.75;;
30380;SDS011;17169;50.966;11.038;2023-04-30T03:48:22;22.23;;;14.05;;
30380;SDS011;17169;50.966;11.038;2023-04-30T03:51:24;21.95;;;14.68;;
30380;SDS011;17169;50.966;11.038;2023-04-30T03:54:27;20.65;;;14.00;;
30380;SDS011;17169;50.966;11.038;2023-04-30T03:57:30;20.60;;;14.10;;
30380;SDS011;17169;50.966;11.038;2023-04-30T04:00:33;22.98;;;14.98;;
30380;SDS011;17169;50.966;11.038;2023-04-30T04:03:37;20.95;;;13.57;;
30380;SDS011;17169;50.966;11.038;2023-04-30T04:06:39;20.92;;;14.20;;
30380;SDS011;17169;50.966;11.038;2023-04-30T04:09:41;21.20;;;13.98;;
30380;SDS011;17169;50.966;11.038;2023-04-30T04:12:44;21.88;;;14.50;;
30380;SDS011;17169;50.966;11.038;2023-04-30T04:15:46;26.23;;;15.15;;
30380;SDS011;17169;50.966;11.038;2023-04-30T04:18:50;19.65;;;13.88;;
30380;SDS011;17169;50.966;11.038;2023-04-30T04:21:53;21.52;;;13.50;;
30380;SDS011;17169;50.966;11.038;2023-04-30T04:24:55;20.35;;;14.07;;
30380;SDS011;17169;50.966;11.038;2023-04-30T04:27:57;20.67;;;14.68;;
30380;SDS011;17169;50.966;11.038;2023-04-30T04:31:00;64.47;;;35.70;;
30380;SDS011;17169;50.966;11.038;2023-04-30T04:34:04;51.42;;;30.48;;
30380;SDS011;17169;50.966;11.038;2023-04-30T04:37:06;47.60;;;28.02;;
30380;SDS011;17169;50.966;11.038;2023-04-30T04:40:09;22.42;;;15.90;;
30380;SDS011;17169;50.966;11.038;2023-04-30T04:43:13;21.92;;;14.75;;
30380;SDS011;17169;50.966;11.038;2023-04-30T04:46:15;22.98;;;16.05;;
30380;SDS011;17169;50.966;11.038;2023-04-30T04:49:19;22.75;;;15.07;;
30380;SDS011;17169;50.966;11.038;2023-04-30T04:52:21;23.15;;;15.13;;
30380;SDS011;17169;50.966;11.038;2023-04-30T04:55:24;22.67;;;14.55;;
30380;SDS011;17169;50.966;11.038;2023-04-30T04:58:26;23.17;;;15.02;;
30380;SDS011;17169;50.966;11.038;2023-04-30T05:01:29;22.40;;;14.90;;
30380;SDS011;17169;50.966;11.038;2023-04-30T05:04:32;20.95;;;13.80;;
30380;SDS011;17169;50.966;11.038;2023-04-30T05:07:35;19.25;;;13.30;;
30380;SDS011;17169;50.966;11.038;2023-04-30T05:10:37;21.88;;;15.57;;
30380;SDS011;17169;50.966;11.038;2023-04-30T05:13:40;19.23;;;13.35;;
30380;SDS011;17169;50.966;11.038;2023-04-30T05:16:42;25.85;;;14.05;;
30380;SDS011;17169;50.966;11.038;2023-04-30T05:19:46;24.95;;;14.68;;
30380;SDS011;17169;50.966;11.038;2023-04-30T05:22:50;26.17;;;15.57;;
30380;SDS011;17169;50.966;11.038;2023-04-30T05:25:52;26.08;;;15.48;;
30380;SDS011;17169;50.966;11.038;2023-04-30T05:28:55;23.40;;;14.15;;
30380;SDS011;17169;50.966;11.038;2023-04-30T05:31:57;19.20;;;13.18;;
30380;SDS011;17169;50.966;11.038;2023-04-30T05:35:01;19.27;;;13.90;;
30380;SDS011;17169;50.966;11.038;2023-04-30T05:38:03;22.10;;;14.43;;
30380;SDS011;17169;50.966;11.038;2023-04-30T05:41:06;19.80;;;12.80;;
30380;SDS011;17169;50.966;11.038;2023-04-30T05:44:08;17.08;;;12.65;;
30380;SDS011;17169;50.966;11.038;2023-04-30T05:47:11;20.13;;;13.15;;
30380;SDS011;17169;50.966;11.038;2023-04-30T05:50:14;18.67;;;11.75;;
30380;SDS011;17169;50.966;11.038;2023-04-30T05:53:17;16.45;;;11.27;;
30380;SDS011;17169;50.966;11.038;2023-04-30T05:56:19;14.40;;;9.77;;
30380;SDS011;17169;50.966;11.038;2023-04-30T05:59:23;17.60;;;10.07;;
30380;SDS011;17169;50.966;11.038;2023-04-30T06:02:26;13.82;;;9.02;;
30380;SDS011;17169;50.966;11.038;2023-04-30T06:05:30;13.10;;;8.07;;
30380;SDS011;17169;50.966;11.038;2023-04-30T06:08:32;11.02;;;7.40;;
30380;SDS011;17169;50.966;11.038;2023-04-30T06:11:34;10.23;;;6.32;;
30380;SDS011;17169;50.966;11.038;2023-04-30T06:14:37;8.48;;;6.15;;
30380;SDS011;17169;50.966;11.038;2023-04-30T06:20:46;14.32;;;6.28;;
30380;SDS011;17169;50.966;11.038;2023-04-30T06:23:49;11.40;;;6.10;;
30380;SDS011;17169;50.966;11.038;2023-04-30T06:26:51;10.70;;;6.20;;
30380;SDS011;17169;50.966;11.038;2023-04-30T06:29:54;10.73;;;5.93;;
30380;SDS011;17169;50.966;11.038;2023-04-30T06:32:56;14.45;;;5.93;;
30380;SDS011;17169;50.966;11.038;2023-04-30T06:36:00;9.70;;;5.20;;
30380;SDS011;17169;50.966;11.038;2023-04-30T06:39:02;11.55;;;5.55;;
30380;SDS011;17169;50.966;11.038;2023-04-30T06:42:06;8.95;;;5.20;;
30380;SDS011;17169;50.966;11.038;2023-04-30T06:45:08;8.63;;;5.32;;
30380;SDS011;17169;50.966;11.038;2023-04-30T06:48:11;17.65;;;5.35;;
30380;SDS011;17169;50.966;11.038;2023-04-30T06:51:15;9.00;;;5.85;;
30380;SDS011;17169;50.966;11.038;2023-04-30T06:54:17;9.73;;;6.32;;
30380;SDS011;17169;50.966;11.038;2023-04-30T06:57:22;12.10;;;5.53;;
30380;SDS011;17169;50.966;11.038;2023-04-30T07:00:25;14.00;;;6.07;;
30380;SDS011;17169;50.966;11.038;2023-04-30T07:03:27;8.95;;;5.25;;
30380;SDS011;17169;50.966;11.038;2023-04-30T07:06:31;11.10;;;5.57;;
30380;SDS011;17169;50.966;11.038;2023-04-30T07:09:34;13.85;;;5.57;;
30380;SDS011;17169;50.966;11.038;2023-04-30T07:12:37;9.70;;;4.85;;
30380;SDS011;17169;50.966;11.038;2023-04-30T07:15:39;10.30;;;5.28;;
30380;SDS011;17169;50.966;11.038;2023-04-30T07:18:41;12.02;;;4.93;;
30380;SDS011;17169;50.966;11.038;2023-04-30T07:21:45;8.48;;;5.32;;
30380;SDS011;17169;50.966;11.038;2023-04-30T07:24:47;11.68;;;5.70;;
30380;SDS011;17169;50.966;11.038;2023-04-30T07:27:50;9.45;;;4.75;;
30380;SDS011;17169;50.966;11.038;2023-04-30T07:30:53;6.50;;;4.28;;
30380;SDS011;17169;50.966;11.038;2023-04-30T07:33:55;8.63;;;4.15;;
30380;SDS011;17169;50.966;11.038;2023-04-30T07:36:59;11.77;;;4.95;;
30380;SDS011;17169;50.966;11.038;2023-04-30T07:40:02;11.37;;;4.53;;
30380;SDS011;17169;50.966;11.038;2023-04-30T07:43:05;9.98;;;4.40;;
30380;SDS011;17169;50.966;11.038;2023-04-30T07:46:07;10.88;;;4.72;;
30380;SDS011;17169;50.966;11.038;2023-04-30T07:49:10;11.52;;;4.88;;
30380;SDS011;17169;50.966;11.038;2023-04-30T07:52:13;9.52;;;4.72;;
30380;SDS011;17169;50.966;11.038;2023-04-30T07:55:16;11.02;;;5.47;;
30380;SDS011;17169;50.966;11.038;2023-04-30T07:58:18;16.67;;;5.15;;
30380;SDS011;17169;50.966;11.038;2023-04-30T08:01:21;12.25;;;5.38;;
30380;SDS011;17169;50.966;11.038;2023-04-30T08:04:23;8.27;;;4.85;;
30380;SDS011;17169;50.966;11.038;2023-04-30T08:07:27;9.32;;;5.10;;
30380;SDS011;17169;50.966;11.038;2023-04-30T08:10:29;11.77;;;5.82;;
30380;SDS011;17169;50.966;11.038;2023-04-30T08:13:32;12.93;;;5.22;;
30380;SDS011;17169;50.966;11.038;2023-04-30T08:16:34;8.35;;;4.97;;
30380;SDS011;17169;50.966;11.038;2023-04-30T08:19:37;12.63;;;5.15;;
30380;SDS011;17169;50.966;11.038;2023-04-30T08:22:40;10.52;;;5.07;;
30380;SDS011;17169;50.966;11.038;2023-04-30T08:25:43;12.43;;;5.88;;
30380;SDS011;17169;50.966;11.038;2023-04-30T08:28:45;8.63;;;5.13;;
30380;SDS011;17169;50.966;11.038;2023-04-30T08:31:47;14.90;;;5.72;;
30380;SDS011;17169;50.966;11.038;2023-04-30T08:34:50;8.32;;;5.40;;
30380;SDS011;17169;50.966;11.038;2023-04-30T08:37:53;9.07;;;5.07;;
30380;SDS011;17169;50.966;11.038;2023-04-30T08:40:59;14.40;;;5.70;;
30380;SDS011;17169;50.966;11.038;2023-04-30T08:44:07;10.80;;;5.63;;
30380;SDS011;17169;50.966;11.038;2023-04-30T08:47:12;11.30;;;5.28;;
30380;SDS011;17169;50.966;11.038;2023-04-30T08:50:16;9.45;;;4.80;;
30380;SDS011;17169;50.966;11.038;2023-04-30T08:53:20;8.25;;;4.65;;
30380;SDS011;17169;50.966;11.038;2023-04-30T08:56:23;10.43;;;4.55;;
30380;SDS011;17169;50.966;11.038;2023-04-30T08:59:27;9.70;;;4.82;;
30380;SDS011;17169;50.966;11.038;2023-04-30T09:02:30;10.32;;;4.43;;
30380;SDS011;17169;50.966;11.038;2023-04-30T09:05:33;9.63;;;4.30;;
30380;SDS011;17169;50.966;11.038;2023-04-30T09:08:43;9.18;;;4.60;;
30380;SDS011;17169;50.966;11.038;2023-04-30T09:11:47;9.98;;;4.45;;
30380;SDS011;17169;50.966;11.038;2023-04-30T09:14:59;9.00;;;4.45;;
30380;SDS011;17169;50.966;11.038;2023-04-30T09:18:06;7.32;;;3.83;;
30380;SDS011;17169;50.966;11.038;2023-04-30T09:21:10;9.38;;;4.65;;
30380;SDS011;17169;50.966;11.038;2023-04-30T09:24:14;8.32;;;4.38;;
30380;SDS011;17169;50.966;11.038;2023-04-30T09:27:17;7.28;;;4.78;;
30380;SDS011;17169;50.966;11.038;2023-04-30T09:30:28;8.52;;;4.85;;
30380;SDS011;17169;50.966;11.038;2023-04-30T09:33:39;8.18;;;4.70;;
30380;SDS011;17169;50.966;11.038;2023-04-30T09:36:53;7.43;;;4.20;;
30380;SDS011;17169;50.966;11.038;2023-04-30T09:39:57;7.50;;;4.30;;
30380;SDS011;17169;50.966;11.038;2023-04-30T09:43:00;8.18;;;4.40;;
30380;SDS011;17169;50.966;11.038;2023-04-30T09:46:03;10.15;;;4.07;;
30380;SDS011;17169;50.966;11.038;2023-04-30T09:49:05;8.38;;;3.65;;
30380;SDS011;17169;50.966;11.038;2023-04-30T09:52:07;7.15;;;3.85;;
30380;SDS011;17169;50.966;11.038;2023-04-30T09:55:12;9.70;;;3.60;;
30380;SDS011;17169;50.966;11.038;2023-04-30T09:58:15;8.80;;;3.95;;
30380;SDS011;17169;50.966;11.038;2023-04-30T10:01:18;8.75;;;4.00;;
30380;SDS011;17169;50.966;11.038;2023-04-30T10:04:21;10.43;;;3.90;;
30380;SDS011;17169;50.966;11.038;2023-04-30T10:07:26;9.10;;;3.60;;
30380;SDS011;17169;50.966;11.038;2023-04-30T10:10:36;9.43;;;3.60;;
30380;SDS011;17169;50.966;11.038;2023-04-30T10:13:41;6.32;;;3.05;;
30380;SDS011;17169;50.966;11.038;2023-04-30T10:16:50;6.75;;;3.08;;
30380;SDS011;17169;50.966;11.038;2023-04-30T10:19:58;8.07;;;3.75;;
30380;SDS011;17169;50.966;11.038;2023-04-30T10:23:05;9.52;;;3.47;;
30380;SDS011;17169;50.966;11.038;2023-04-30T10:26:10;8.07;;;2.97;;
30380;SDS011;17169;50.966;11.038;2023-04-30T10:29:13;13.05;;;2.85;;
30380;SDS011;17169;50.966;11.038;2023-04-30T10:32:16;5.70;;;3.00;;
30380;SDS011;17169;50.966;11.038;2023-04-30T10:35:21;8.02;;;3.35;;
30380;SDS011;17169;50.966;11.038;2023-04-30T10:38:27;10.25;;;3.05;;
30380;SDS011;17169;50.966;11.038;2023-04-30T10:41:33;5.80;;;2.97;;
30380;SDS011;17169;50.966;11.038;2023-04-30T10:44:35;8.00;;;2.75;;
30380;SDS011;17169;50.966;11.038;2023-04-30T10:47:40;4.78;;;2.10;;
30380;SDS011;17169;50.966;11.038;2023-04-30T10:50:43;8.32;;;2.88;;
30380;SDS011;17169;50.966;11.038;2023-04-30T10:53:47;7.05;;;2.72;;
30380;SDS011;17169;50.966;11.038;2023-04-30T10:56:52;5.05;;;3.08;;
30380;SDS011;17169;50.966;11.038;2023-04-30T11:03:25;7.68;;;2.60;;
30380;SDS011;17169;50.966;11.038;2023-04-30T11:06:33;4.00;;;2.00;;
30380;SDS011;17169;50.966;11.038;2023-04-30T11:09:50;4.78;;;2.40;;
30380;SDS011;17169;50.966;11.038;2023-04-30T11:13:02;5.63;;;2.05;;
30380;SDS011;17169;50.966;11.038;2023-04-30T11:16:06;4.63;;;1.95;;
30380;SDS011;17169;50.966;11.038;2023-04-30T11:19:09;6.47;;;2.47;;
30380;SDS011;17169;50.966;11.038;2023-04-30T11:22:16;6.70;;;2.47;;
30380;SDS011;17169;50.966;11.038;2023-04-30T11:25:20;7.32;;;1.75;;
30380;SDS011;17169;50.966;11.038;2023-04-30T11:28:25;5.05;;;1.67;;
30380;SDS011;17169;50.966;11.038;2023-04-30T11:31:32;7.78;;;2.05;;
30380;SDS011;17169;50.966;11.038;2023-04-30T11:34:35;4.55;;;2.00;;
30380;SDS011;17169;50.966;11.038;2023-04-30T11:37:39;5.20;;;1.88;;
30380;SDS011;17169;50.966;11.038;2023-04-30T11:40:43;3.92;;;1.80;;
30380;SDS011;17169;50.966;11.038;2023-04-30T11:43:49;7.57;;;1.40;;
30380;SDS011;17169;50.966;11.038;2023-04-30T11:46:52;6.60;;;1.70;;
30380;SDS011;17169;50.966;11.038;2023-04-30T11:49:55;5.88;;;1.67;;
30380;SDS011;17169;50.966;11.038;2023-04-30T11:52:58;3.75;;;1.75;;
30380;SDS011;17169;50.966;11.038;2023-04-30T11:56:03;5.93;;;1.83;;
30380;SDS011;17169;50.966;11.038;2023-04-30T11:59:09;4.68;;;1.70;;
30380;SDS011;17169;50.966;11.038;2023-04-30T12:02:13;5.32;;;2.13;;
30380;SDS011;17169;50.966;11.038;2023-04-30T12:05:17;8.18;;;1.52;;
30380;SDS011;17169;50.966;11.038;2023-04-30T12:08:21;4.28;;;1.50;;
30380;SDS011;17169;50.966;11.038;2023-04-30T12:11:24;3.55;;;1.55;;
30380;SDS011;17169;50.966;11.038;2023-04-30T12:14:29;5.05;;;1.40;;
30380;SDS011;17169;50.966;11.038;2023-04-30T12:17:33;6.78;;;1.90;;
30380;SDS011;17169;50.966;11.038;2023-04-30T12:20:36;5.82;;;1.77;;
30380;SDS011;17169;50.966;11.038;2023-04-30T12:23:39;8.20;;;1.65;;
30380;SDS011;17169;50.966;11.038;2023-04-30T12:26:41;5.72;;;1.75;;
30380;SDS011;17169;50.966;11.038;2023-04-30T12:29:46;5.40;;;1.52;;
30380;SDS011;17169;50.966;11.038;2023-04-30T12:32:50;4.07;;;1.42;;
30380;SDS011;17169;50.966;11.038;2023-04-30T12:39:02;4.18;;;1.73;;
30380;SDS011;17169;50.966;11.038;2023-04-30T12:42:08;5.45;;;1.48;;
30380;SDS011;17169;50.966;11.038;2023-04-30T12:45:12;3.65;;;1.67;;
30380;SDS011;17169;50.966;11.038;2023-04-30T12:48:41;6.00;;;1.95;;
30380;SDS011;17169;50.966;11.038;2023-04-30T12:51:45;5.53;;;1.48;;
30380;SDS011;17169;50.966;11.038;2023-04-30T12:54:48;4.22;;;1.58;;
30380;SDS011;17169;50.966;11.038;2023-04-30T12:58:03;3.45;;;1.40;;
30380;SDS011;17169;50.966;11.038;2023-04-30T13:01:11;4.07;;;1.35;;
30380;SDS011;17169;50.966;11.038;2023-04-30T13:04:15;4.28;;;1.42;;
30380;SDS011;17169;50.966;11.038;2023-04-30T13:07:17;4.63;;;1.63;;
30380;SDS011;17169;50.966;11.038;2023-04-30T13:10:21;5.45;;;1.80;;
30380;SDS011;17169;50.966;11.038;2023-04-30T13:13:24;5.05;;;1.55;;
30380;SDS011;17169;50.966;11.038;2023-04-30T13:16:28;6.68;;;1.50;;
30380;SDS011;17169;50.966;11.038;2023-04-30T13:19:31;7.07;;;1.40;;
30380;SDS011;17169;50.966;11.038;2023-04-30T13:22:34;5.72;;;1.63;;
30380;SDS011;17169;50.966;11.038;2023-04-30T13:25:37;5.35;;;1.45;;
30380;SDS011;17169;50.966;11.038;2023-04-30T13:28:41;8.32;;;1.27;;
30380;SDS011;17169;50.966;11.038;2023-04-30T13:31:45;5.45;;;1.58;;
30380;SDS011;17169;50.966;11.038;2023-04-30T13:34:48;5.10;;;1.35;;
30380;SDS011;17169;50.966;11.038;2023-04-30T13:37:51;3.10;;;1.08;;
30380;SDS011;17169;50.966;11.038;2023-04-30T13:40:54;3.05;;;1.05;;
30380;SDS011;17169;50.966;11.038;2023-04-30T13:43:56;4.32;;;1.52;;
30380;SDS011;17169;50.966;11.038;2023-04-30T13:47:01;4.20;;;1.45;;
30380;SDS011;17169;50.966;11.038;2023-04-30T13:50:03;5.78;;;1.65;;
30380;SDS011;17169;50.966;11.038;2023-04-30T13:53:07;4.00;;;1.38;;
30380;SDS011;17169;50.966;11.038;2023-04-30T13:56:09;6.47;;;1.42;;
30380;SDS011;17169;50.966;11.038;2023-04-30T13:59:12;3.40;;;1.40;;
30380;SDS011;17169;50.966;11.038;2023-04-30T14:02:15;4.60;;;1.40;;
30380;SDS011;17169;50.966;11.038;2023-04-30T14:05:18;6.40;;;1.63;;
30380;SDS011;17169;50.966;11.038;2023-04-30T14:08:20;4.40;;;1.52;;
30380;SDS011;17169;50.966;11.038;2023-04-30T14:11:22;6.43;;;1.70;;
30380;SDS011;17169;50.966;11.038;2023-04-30T14:14:25;8.77;;;1.83;;
30380;SDS011;17169;50.966;11.038;2023-04-30T14:17:28;7.38;;;2.17;;
30380;SDS011;17169;50.966;11.038;2023-04-30T14:20:31;3.77;;;1.50;;
30380;SDS011;17169;50.966;11.038;2023-04-30T14:23:33;5.07;;;1.63;;
30380;SDS011;17169;50.966;11.038;2023-04-30T14:26:36;5.57;;;1.65;;
30380;SDS011;17169;50.966;11.038;2023-04-30T14:29:38;3.90;;;1.60;;
30380;SDS011;17169;50.966;11.038;2023-04-30T14:32:42;7.65;;;1.75;;
30380;SDS011;17169;50.966;11.038;2023-04-30T14:35:44;7.88;;;1.60;;
30380;SDS011;17169;50.966;11.038;2023-04-30T14:38:47;4.82;;;1.70;;
30380;SDS011;17169;50.966;11.038;2023-04-30T14:41:49;6.05;;;1.73;;
30380;SDS011;17169;50.966;11.038;2023-04-30T14:44:51;6.63;;;1.35;;
30380;SDS011;17169;50.966;11.038;2023-04-30T14:47:55;3.67;;;1.38;;
30380;SDS011;17169;50.966;11.038;2023-04-30T14:50:57;5.47;;;2.00;;
30380;SDS011;17169;50.966;11.038;2023-04-30T14:54:00;7.68;;;1.92;;
30380;SDS011;17169;50.966;11.038;2023-04-30T14:57:03;5.60;;;1.70;;
30380;SDS011;17169;50.966;11.038;2023-04-30T15:00:06;6.30;;;2.30;;
30380;SDS011;17169;50.966;11.038;2023-04-30T15:03:10;4.75;;;1.83;;
30380;SDS011;17169;50.966;11.038;2023-04-30T15:06:13;6.15;;;1.70;;
30380;SDS011;17169;50.966;11.038;2023-04-30T15:09:15;7.05;;;1.90;;
30380;SDS011;17169;50.966;11.038;2023-04-30T15:12:18;8.27;;;1.77;;
30380;SDS011;17169;50.966;11.038;2023-04-30T15:15:21;5.50;;;2.00;;
30380;SDS011;17169;50.966;11.038;2023-04-30T15:18:28;4.85;;;1.42;;
30380;SDS011;17169;50.966;11.038;2023-04-30T15:24:33;5.38;;;1.77;;
30380;SDS011;17169;50.966;11.038;2023-04-30T15:27:36;5.90;;;1.70;;
30380;SDS011;17169;50.966;11.038;2023-04-30T15:30:38;5.00;;;1.60;;
30380;SDS011;17169;50.966;11.038;2023-04-30T15:33:42;6.30;;;1.70;;
30380;SDS011;17169;50.966;11.038;2023-04-30T15:39:46;5.43;;;1.50;;
30380;SDS011;17169;50.966;11.038;2023-04-30T15:42:49;2.88;;;1.38;;
30380;SDS011;17169;50.966;11.038;2023-04-30T15:45:51;4.20;;;1.40;;
30380;SDS011;17169;50.966;11.038;2023-04-30T15:48:55;3.30;;;1.30;;
30380;SDS011;17169;50.966;11.038;2023-04-30T15:51:57;4.45;;;1.42;;
30380;SDS011;17169;50.966;11.038;2023-04-30T15:55:00;2.50;;;1.45;;
30380;SDS011;17169;50.966;11.038;2023-04-30T15:58:02;5.90;;;1.88;;
30380;SDS011;17169;50.966;11.038;2023-04-30T16:01:05;2.13;;;1.10;;
30380;SDS011;17169;50.966;11.038;2023-04-30T16:04:09;3.67;;;1.23;;
30380;SDS011;17169;50.966;11.038;2023-04-30T16:10:14;5.35;;;1.45;;
30380;SDS011;17169;50.966;11.038;2023-04-30T16:13:16;5.72;;;1.50;;
30380;SDS011;17169;50.966;11.038;2023-04-30T16:16:19;5.95;;;1.73;;
30380;SDS011;17169;50.966;11.038;2023-04-30T16:19:22;6.55;;;1.40;;
30380;SDS011;17169;50.966;11.038;2023-04-30T16:22:25;1.77;;;1.08;;
30380;SDS011;17169;50.966;11.038;2023-04-30T16:25:27;3.28;;;1.40;;
30380;SDS011;17169;50.966;11.038;2023-04-30T16:28:30;3.55;;;1.20;;
30380;SDS011;17169;50.966;11.038;2023-04-30T16:31:32;4.22;;;1.38;;
30380;SDS011;17169;50.966;11.038;2023-04-30T16:34:36;5.18;;;1.35;;
30380;SDS011;17169;50.966;11.038;2023-04-30T16:37:38;3.15;;;1.10;;
30380;SDS011;17169;50.966;11.038;2023-04-30T16:40:41;5.20;;;1.58;;
30380;SDS011;17169;50.966;11.038;2023-04-30T16:43:43;5.65;;;1.45;;
30380;SDS011;17169;50.966;11.038;2023-04-30T16:46:45;3.58;;;1.40;;
30380;SDS011;17169;50.966;11.038;2023-04-30T16:49:49;2.95;;;1.50;;
30380;SDS011;17169;50.966;11.038;2023-04-30T16:52:52;4.65;;;1.60;;
30380;SDS011;17169;50.966;11.038;2023-04-30T16:55:54;2.05;;;1.10;;
30380;SDS011;17169;50.966;11.038;2023-04-30T16:58:56;5.53;;;1.48;;
30380;SDS011;17169;50.966;11.038;2023-04-30T17:01:59;3.38;;;1.25;;
30380;SDS011;17169;50.966;11.038;2023-04-30T17:05:03;2.22;;;1.20;;
30380;SDS011;17169;50.966;11.038;2023-04-30T17:08:06;6.30;;;1.38;;
30380;SDS011;17169;50.966;11.038;2023-04-30T17:11:09;4.75;;;1.10;;
30380;SDS011;17169;50.966;11.038;2023-04-30T17:14:11;4.82;;;1.80;;
30380;SDS011;17169;50.966;11.038;2023-04-30T17:17:13;5.65;;;1.30;;
30380;SDS011;17169;50.966;11.038;2023-04-30T17:20:17;5.55;;;1.90;;
30380;SDS011;17169;50.966;11.038;2023-04-30T17:23:20;6.30;;;2.15;;
30380;SDS011;17169;50.966;11.038;2023-04-30T17:26:22;8.77;;;3.00;;
30380;SDS011;17169;50.966;11.038;2023-04-30T17:29:24;8.43;;;2.67;;
30380;SDS011;17169;50.966;11.038;2023-04-30T17:32:27;5.85;;;2.10;;
30380;SDS011;17169;50.966;11.038;2023-04-30T17:35:30;6.00;;;2.20;;
30380;SDS011;17169;50.966;11.038;2023-04-30T17:38:33;8.15;;;2.20;;
30380;SDS011;17169;50.966;11.038;2023-04-30T17:41:36;7.65;;;2.00;;
30380;SDS011;17169;50.966;11.038;2023-04-30T17:44:38;3.50;;;1.63;;
30380;SDS011;17169;50.966;11.038;2023-04-30T17:47:41;14.73;;;1.83;;
30380;SDS011;17169;50.966;11.038;2023-04-30T17:50:44;8.60;;;1.48;;
30380;SDS011;17169;50.966;11.038;2023-04-30T17:53:47;6.15;;;1.30;;
30380;SDS011;17169;50.966;11.038;2023-04-30T17:56:49;7.72;;;2.47;;
30380;SDS011;17169;50.966;11.038;2023-04-30T17:59:51;7.20;;;1.70;;
30380;SDS011;17169;50.966;11.038;2023-04-30T18:02:54;4.38;;;1.60;;
30380;SDS011;17169;50.966;11.038;2023-04-30T18:05:57;5.70;;;1.60;;
30380;SDS011;17169;50.966;11.038;2023-04-30T18:09:00;4.45;;;1.48;;
30380;SDS011;17169;50.966;11.038;2023-04-30T18:12:03;6.30;;;2.35;;
30380;SDS011;17169;50.966;11.038;2023-04-30T18:15:06;4.35;;;1.60;;
30380;SDS011;17169;50.966;11.038;2023-04-30T18:18:09;6.32;;;1.88;;